KPY weather

Port Bailey Seaplane Base
Port Bailey, Alaska, United States

Public forecast

Using degrees Fahrenheit for public forecast. Weather courtesy of forecast.io.

METAR (pilot weather report)

Closest report is Kodiak Airport, 20.6 nm (38.1 km) ESE. Retrieved 2019/09/22 10:53 UTC (25 minutes ago):

PADQ 221053Z AUTO 27006KT 10SM CLR 06/02 A2968

TAF (pilot weather forecast)

Closest forecast is Kodiak Airport, 20.6 nm (38.1 km) ESE. Retrieved 2019/09/22 06:24 UTC (5 hours ago):

TAF PADQ 220521Z 2206/2306 26007KT P6SM SKC TEMPO 2206/2208 26010G16KT FM222100 10012KT P6SM VCSH BKN045 FM230300 06024G34KT 4SM -RA BR OVC020